createdAt,value
2018-02-21T00:02:05.980Z,83.37
2018-02-21T00:04:33.600Z,84.20
2018-02-21T00:07:01.240Z,86.67
2018-02-21T00:09:28.874Z,90.70
2018-02-21T00:11:56.517Z,87.07
2018-02-21T00:14:24.141Z,86.63
2018-02-21T00:16:51.780Z,77.13
2018-02-21T00:19:20.169Z,85.63
2018-02-21T00:21:48.560Z,93.73
2018-02-21T00:24:16.961Z,85.30
2018-02-21T00:26:44.602Z,85.40
2018-02-21T00:29:13.005Z,86.77
2018-02-21T00:31:40.673Z,85.10
2018-02-21T00:34:08.649Z,82.33
2018-02-21T00:36:36.277Z,86.17
2018-02-21T00:39:03.925Z,87.50
2018-02-21T00:41:31.566Z,91.80
2018-02-21T00:43:59.209Z,85.10
2018-02-21T00:46:26.833Z,88.47
2018-02-21T00:48:54.473Z,92.80
2018-02-21T00:51:22.105Z,89.93
2018-02-21T00:53:49.732Z,86.07
2018-02-21T00:56:17.378Z,88.87
2018-02-21T00:58:45.017Z,82.83
2018-02-21T01:01:12.645Z,86.17
2018-02-21T01:03:40.292Z,93.23
2018-02-21T01:06:07.940Z,88.83
2018-02-21T01:08:35.559Z,83.77
2018-02-21T01:11:04.937Z,87.47
2018-02-21T01:13:32.611Z,88.87
2018-02-21T01:16:00.247Z,89.40
2018-02-21T01:18:27.885Z,87.13
2018-02-21T01:20:55.519Z,90.97
2018-02-21T01:23:23.929Z,85.97
2018-02-21T01:25:51.567Z,81.33
2018-02-21T01:28:19.961Z,85.73
2018-02-21T01:30:48.364Z,87.03
2018-02-21T01:33:15.986Z,88.20
2018-02-21T01:35:43.612Z,86.00
2018-02-21T01:38:12.012Z,90.93
2018-02-21T01:40:39.649Z,87.27
2018-02-21T01:43:07.276Z,80.27
2018-02-21T01:45:34.920Z,84.20
2018-02-21T01:48:02.544Z,85.27
2018-02-21T01:53:30.073Z,80.27
2018-02-21T01:55:57.725Z,91.90
2018-02-21T01:58:25.349Z,84.67
2018-02-21T02:00:52.980Z,83.13
2018-02-21T02:03:21.389Z,86.10
2018-02-21T02:05:49.024Z,85.53
2018-02-21T02:08:16.701Z,84.13
2018-02-21T02:10:45.113Z,89.40
2018-02-21T02:13:12.759Z,82.07
2018-02-21T02:15:41.154Z,90.43
2018-02-21T02:18:08.807Z,89.97
2018-02-21T02:20:37.200Z,86.37
2018-02-21T02:23:04.837Z,80.93
2018-02-21T02:25:32.480Z,82.23
2018-02-21T02:28:00.121Z,77.17
2018-02-21T02:30:27.809Z,89.83
2018-02-21T02:32:55.450Z,83.93
2018-02-21T02:35:23.081Z,84.13
2018-02-21T02:37:51.500Z,89.03
2018-02-21T02:40:19.122Z,89.97
2018-02-21T02:42:46.762Z,88.50
2018-02-21T02:45:15.161Z,91.77
2018-02-21T02:47:42.803Z,84.20
2018-02-21T02:50:10.452Z,89.13
2018-02-21T02:52:38.080Z,85.00
2018-02-21T02:55:06.502Z,85.10
2018-02-21T02:57:34.114Z,92.63
2018-02-21T03:00:01.773Z,87.13
2018-02-21T03:02:29.401Z,88.87
2018-02-21T03:04:57.044Z,83.47
2018-02-21T03:07:24.681Z,88.03
2018-02-21T03:09:52.329Z,83.73
2018-02-21T03:12:20.720Z,87.40
2018-02-21T03:14:48.355Z,91.33
2018-02-21T03:17:15.993Z,93.10
2018-02-21T03:19:43.650Z,93.23
2018-02-21T03:22:12.042Z,97.57
2018-02-21T03:24:39.681Z,101.87
2018-02-21T03:27:07.327Z,99.70
2018-02-21T03:29:34.972Z,108.33
2018-02-21T03:32:03.444Z,107.13
2018-02-21T03:34:31.817Z,109.50
2018-02-21T03:36:59.465Z,111.77
2018-02-21T03:39:27.116Z,111.83
2018-02-21T03:41:55.543Z,108.43
2018-02-21T03:44:23.207Z,114.83
2018-02-21T03:46:50.850Z,118.00
2018-02-21T03:49:19.429Z,118.07
2018-02-21T03:51:47.841Z,125.27
2018-02-21T03:54:15.480Z,119.07
2018-02-21T03:56:43.881Z,115.30
2018-02-21T03:59:11.525Z,116.50
2018-02-21T04:01:39.936Z,125.20
2018-02-21T04:04:07.594Z,123.40
2018-02-21T04:06:35.249Z,125.37
2018-02-21T04:09:03.648Z,126.97
2018-02-21T04:11:31.293Z,129.43
2018-02-21T04:13:58.949Z,123.20
2018-02-21T04:16:26.600Z,124.97
2018-02-21T04:18:54.264Z,124.33
2018-02-21T04:21:21.919Z,133.67
2018-02-21T04:23:49.548Z,129.57
2018-02-21T04:26:17.202Z,128.90
2018-02-21T04:28:45.589Z,123.63
2018-02-21T04:31:13.228Z,130.73
2018-02-21T04:33:40.871Z,134.63
2018-02-21T04:36:08.508Z,134.87
2018-02-21T04:38:36.161Z,131.93
2018-02-21T04:41:04.549Z,130.73
2018-02-21T04:43:32.188Z,138.27
2018-02-21T04:46:00.600Z,136.73
2018-02-21T04:48:28.236Z,139.53
2018-02-21T04:50:56.645Z,135.37
2018-02-21T04:53:24.286Z,141.03
2018-02-21T04:55:51.929Z,135.47
2018-02-21T04:58:19.560Z,136.67
2018-02-21T05:00:47.208Z,141.35
2018-02-21T05:03:15.608Z,151.77
2018-02-21T05:05:43.248Z,131.33
2018-02-21T05:08:10.888Z,140.80
2018-02-21T05:10:38.548Z,141.23
2018-02-21T05:13:06.202Z,150.27
2018-02-21T05:15:33.864Z,142.13
2018-02-21T05:18:01.504Z,148.63
2018-02-21T05:20:29.159Z,139.83
2018-02-21T05:22:56.822Z,134.07
2018-02-21T05:25:25.220Z,146.10
2018-02-21T05:27:52.893Z,134.90
2018-02-21T05:30:20.545Z,144.40
2018-02-21T05:32:48.184Z,141.73
2018-02-21T05:35:16.618Z,133.63
2018-02-21T05:37:44.296Z,128.03
2018-02-21T05:40:11.936Z,139.97
2018-02-21T05:42:39.592Z,139.30
2018-02-21T05:45:07.245Z,137.27
2018-02-21T05:47:35.640Z,149.77
2018-02-21T05:50:03.326Z,139.77
2018-02-21T05:52:30.932Z,153.53
2018-02-21T05:54:58.568Z,157.47
2018-02-21T05:57:26.209Z,130.80
2018-02-21T05:59:53.848Z,135.17
2018-02-21T06:02:22.257Z,139.70
2018-02-21T06:04:49.905Z,148.20
2018-02-21T06:07:18.327Z,131.13
2018-02-21T06:09:45.972Z,135.10
2018-02-21T06:12:13.609Z,140.93
2018-02-21T06:14:41.253Z,156.43
2018-02-21T06:17:08.896Z,140.97
2018-02-21T06:19:36.537Z,142.10
2018-02-21T06:22:04.176Z,141.30
2018-02-21T06:24:32.601Z,153.50
2018-02-21T06:27:00.236Z,140.67
2018-02-21T06:29:28.640Z,140.13
2018-02-21T06:31:56.274Z,141.97
2018-02-21T06:34:23.952Z,139.87
2018-02-21T06:36:52.375Z,131.10
2018-02-21T06:39:20.078Z,137.57
2018-02-21T06:41:47.743Z,132.40
2018-02-21T06:44:15.385Z,148.17
2018-02-21T06:46:43.024Z,154.30
2018-02-21T06:49:10.681Z,158.03
2018-02-21T06:51:39.097Z,149.87
2018-02-21T06:54:06.732Z,154.33
2018-02-21T06:56:35.136Z,150.63
2018-02-21T06:59:02.769Z,160.37
2018-02-21T07:01:36.769Z,151.47
2018-02-21T07:04:04.418Z,159.90
2018-02-21T07:06:32.057Z,157.33
2018-02-21T07:08:59.692Z,160.80
2018-02-21T07:11:28.132Z,158.17
2018-02-21T07:13:55.788Z,166.77
2018-02-21T07:16:23.425Z,157.50
2018-02-21T07:18:51.065Z,159.67
2018-02-21T07:21:19.469Z,146.93
2018-02-21T07:23:47.105Z,148.73
2018-02-21T07:26:14.745Z,153.33
2018-02-21T07:28:42.364Z,157.73
2018-02-21T07:31:10.013Z,169.50
2018-02-21T07:33:38.413Z,163.87
2018-02-21T07:36:06.053Z,144.83
2018-02-21T07:38:33.708Z,149.37
2018-02-21T07:41:01.349Z,150.87
2018-02-21T07:43:34.472Z,150.97
2018-02-21T07:46:02.119Z,142.67
2018-02-21T07:48:29.762Z,160.30
2018-02-21T07:50:57.447Z,145.73
2018-02-21T07:53:25.236Z,161.20
2018-02-21T07:55:52.931Z,144.33
2018-02-21T07:58:21.388Z,150.67
2018-02-21T08:00:50.077Z,146.70
2018-02-21T08:03:17.712Z,144.20
2018-02-21T08:05:45.400Z,147.80
2018-02-21T08:08:13.106Z,141.90
2018-02-21T08:10:41.530Z,137.30
2018-02-21T08:13:10.009Z,145.20
2018-02-21T08:15:37.647Z,151.53
2018-02-21T08:18:05.322Z,148.53
2018-02-21T08:20:33.723Z,145.37
2018-02-21T08:23:01.377Z,136.37
2018-02-21T08:25:29.078Z,134.27
2018-02-21T08:27:56.741Z,130.30
2018-02-21T08:30:24.369Z,130.27
2018-02-21T08:32:52.018Z,130.33
2018-02-21T08:35:20.430Z,142.90
2018-02-21T08:37:48.169Z,129.73
2018-02-21T08:40:17.004Z,120.37
2018-02-21T08:42:44.644Z,135.97
2018-02-21T08:45:13.351Z,123.23
2018-02-21T08:47:41.033Z,122.17
2018-02-21T08:50:08.750Z,130.73
2018-02-21T08:52:38.226Z,126.67
2018-02-21T08:55:05.877Z,123.60
2018-02-21T08:57:33.520Z,126.77
2018-02-21T09:00:01.348Z,120.57
2018-02-21T09:02:30.869Z,126.20
2018-02-21T09:05:05.804Z,108.07
2018-02-21T09:07:34.212Z,111.07
2018-02-21T09:10:01.846Z,119.30
2018-02-21T09:12:30.250Z,109.50
2018-02-21T09:14:57.912Z,107.50
2018-02-21T09:17:26.302Z,110.57
2018-02-21T09:19:53.944Z,113.87
2018-02-21T09:22:22.341Z,117.43
2018-02-21T09:24:50.733Z,104.93
2018-02-21T09:27:18.365Z,105.50
2018-02-21T09:29:46.014Z,97.60
2018-02-21T09:32:13.647Z,94.10
2018-02-21T09:34:41.279Z,109.07
2018-02-21T09:37:09.672Z,91.57
2018-02-21T09:39:38.103Z,95.37
2018-02-21T09:42:05.773Z,96.97
2018-02-21T09:44:33.400Z,87.73
2018-02-21T09:47:01.028Z,98.40
2018-02-21T09:49:28.657Z,91.77
2018-02-21T09:51:56.297Z,95.20
2018-02-21T09:54:23.916Z,88.73
2018-02-21T09:56:51.540Z,102.17
2018-02-21T09:59:19.176Z,91.03
2018-02-21T10:01:46.804Z,82.43
2018-02-21T10:04:14.429Z,86.30
2018-02-21T10:06:42.056Z,87.47
2018-02-21T10:09:09.687Z,80.03
2018-02-21T10:11:37.312Z,84.60
2018-02-21T10:14:04.945Z,78.10
2018-02-21T10:16:32.612Z,71.60
2018-02-21T10:19:00.206Z,77.10
2018-02-21T10:21:28.629Z,77.77
2018-02-21T10:23:56.261Z,71.93
2018-02-21T10:26:24.644Z,67.83
2018-02-21T10:28:53.071Z,70.53
2018-02-21T10:31:20.698Z,74.30
2018-02-21T10:33:50.289Z,75.83
2018-02-21T10:36:24.260Z,71.57
2018-02-21T10:38:51.941Z,67.93
2018-02-21T10:41:30.749Z,68.90
2018-02-21T10:43:58.376Z,69.80
2018-02-21T10:46:25.996Z,68.23
2018-02-21T10:48:54.003Z,61.73
2018-02-21T10:51:22.417Z,58.40
2018-02-21T10:53:50.041Z,62.33
2018-02-21T10:56:17.935Z,61.13
2018-02-21T10:58:45.622Z,60.20
2018-02-21T11:01:13.266Z,61.63
2018-02-21T11:03:41.653Z,66.00
2018-02-21T11:06:16.104Z,57.47
2018-02-21T11:08:43.742Z,54.10
2018-02-21T11:11:11.377Z,59.83
2018-02-21T11:13:39.001Z,55.40
2018-02-21T11:16:06.629Z,56.10
2018-02-21T11:18:35.021Z,53.33
2018-02-21T11:21:02.656Z,48.47
2018-02-21T11:23:30.347Z,56.40
2018-02-21T11:25:57.932Z,54.40
2018-02-21T11:28:25.553Z,49.83
2018-02-21T11:30:53.209Z,49.83
2018-02-21T11:33:20.828Z,46.60
2018-02-21T11:35:48.477Z,47.43
2018-02-21T11:38:16.876Z,51.10
2018-02-21T11:40:44.501Z,50.57
2018-02-21T11:43:12.143Z,53.10
2018-02-21T11:48:19.208Z,52.67
2018-02-21T11:50:46.830Z,48.87
2018-02-21T11:53:14.842Z,44.03
2018-02-21T11:55:42.465Z,50.80
2018-02-21T11:58:10.097Z,47.00
2018-02-21T12:00:37.721Z,48.20
2018-02-21T12:03:06.125Z,48.37
2018-02-21T12:05:33.753Z,48.87
2018-02-21T12:08:01.378Z,46.23
2018-02-21T12:10:29.004Z,46.30
2018-02-21T12:12:57.389Z,54.57
2018-02-21T12:15:25.780Z,47.83
2018-02-21T12:17:54.168Z,46.73
2018-02-21T12:20:21.800Z,52.47
2018-02-21T12:22:49.649Z,50.47
2018-02-21T12:25:17.277Z,48.90
2018-02-21T12:27:44.896Z,54.43
2018-02-21T12:30:12.522Z,50.80
2018-02-21T12:32:40.149Z,47.73
2018-02-21T12:35:07.778Z,47.53
2018-02-21T12:37:35.405Z,52.30
2018-02-21T12:40:03.030Z,47.87
2018-02-21T12:42:30.669Z,54.93
2018-02-21T12:44:58.284Z,54.40
2018-02-21T12:47:26.684Z,48.20
2018-02-21T12:49:54.648Z,45.03
2018-02-21T12:52:23.041Z,47.30
2018-02-21T12:54:50.665Z,45.73
2018-02-21T12:57:18.297Z,48.37
2018-02-21T12:59:45.925Z,49.10
2018-02-21T13:02:13.560Z,49.43
2018-02-21T13:04:41.198Z,48.67
2018-02-21T13:07:20.147Z,48.63
2018-02-21T13:09:47.776Z,48.37
2018-02-21T13:12:15.418Z,47.77
2018-02-21T13:14:43.052Z,48.27
2018-02-21T13:17:10.685Z,50.93
2018-02-21T13:19:38.317Z,49.50
2018-02-21T13:22:06.708Z,47.87
2018-02-21T13:24:34.341Z,48.40
2018-02-21T13:27:02.005Z,50.93
2018-02-21T13:29:29.818Z,47.03
2018-02-21T13:31:57.449Z,51.10
2018-02-21T13:34:25.077Z,44.67
2018-02-21T13:36:52.705Z,47.67
2018-02-21T13:39:21.093Z,51.37
2018-02-21T13:41:48.720Z,44.40
2018-02-21T13:44:16.344Z,47.10
2018-02-21T13:46:44.061Z,49.60
2018-02-21T13:49:11.705Z,47.53
2018-02-21T13:51:39.343Z,43.93
2018-02-21T13:54:06.969Z,40.73
2018-02-21T13:56:35.368Z,42.63
2018-02-21T13:59:03.012Z,42.43
2018-02-21T14:01:30.664Z,42.03
2018-02-21T14:03:58.289Z,44.20
2018-02-21T14:06:25.928Z,43.00
2018-02-21T14:08:54.320Z,43.67
2018-02-21T14:11:21.937Z,41.33
2018-02-21T14:13:49.570Z,45.17
2018-02-21T14:16:17.196Z,40.47
2018-02-21T14:18:45.129Z,42.97
2018-02-21T14:21:12.770Z,40.47
2018-02-21T14:23:40.441Z,42.23
2018-02-21T14:26:08.073Z,38.67
2018-02-21T14:28:36.808Z,44.53
2018-02-21T14:31:04.428Z,37.27
2018-02-21T14:33:32.832Z,37.93
2018-02-21T14:36:00.468Z,42.17
2018-02-21T14:38:28.099Z,47.17
2018-02-21T14:40:55.726Z,48.50
2018-02-21T14:43:23.349Z,47.67
2018-02-21T14:45:50.973Z,43.03
2018-02-21T14:48:18.601Z,44.40
2018-02-21T14:50:46.221Z,47.10
2018-02-21T14:53:13.880Z,43.10
2018-02-21T14:55:41.516Z,45.90
2018-02-21T14:58:09.903Z,50.73
2018-02-21T15:00:37.545Z,48.33
2018-02-21T15:03:05.169Z,48.07
2018-02-21T15:05:32.795Z,45.93
2018-02-21T15:08:01.189Z,52.93
2018-02-21T15:10:28.822Z,44.20
2018-02-21T15:12:56.448Z,47.43
2018-02-21T15:15:24.078Z,47.17
2018-02-21T15:17:51.725Z,42.80
2018-02-21T15:20:19.352Z,42.70
2018-02-21T15:22:46.969Z,45.03
2018-02-21T15:25:15.385Z,42.30
2018-02-21T15:27:43.031Z,41.90
2018-02-21T15:30:13.380Z,38.83
2018-02-21T15:32:40.956Z,42.07
2018-02-21T15:35:08.592Z,43.67
2018-02-21T15:37:36.976Z,41.87
2018-02-21T15:40:04.610Z,37.40
2018-02-21T15:42:32.233Z,38.37
2018-02-21T15:44:59.870Z,39.77
2018-02-21T15:47:28.645Z,38.67
2018-02-21T15:49:57.032Z,38.17
2018-02-21T15:52:25.449Z,38.47
2018-02-21T15:54:53.101Z,39.00
2018-02-21T15:57:20.741Z,33.93
2018-02-21T15:59:48.356Z,36.20
2018-02-21T16:02:15.994Z,35.47
2018-02-21T16:04:43.618Z,34.80
2018-02-21T16:07:11.248Z,34.43
2018-02-21T16:09:38.873Z,35.47
2018-02-21T16:12:07.265Z,32.10
2018-02-21T16:14:35.671Z,36.23
2018-02-21T16:17:03.304Z,38.07
2018-02-21T16:19:31.696Z,41.53
2018-02-21T16:22:00.098Z,41.47
2018-02-21T16:24:27.730Z,45.63
2018-02-21T16:26:55.392Z,44.93
2018-02-21T16:29:23.054Z,45.17
2018-02-21T16:31:50.692Z,47.03
2018-02-21T16:34:18.341Z,49.00
2018-02-21T16:36:45.982Z,50.43
2018-02-21T16:39:13.602Z,46.47
2018-02-21T16:41:41.249Z,45.20
2018-02-21T16:44:08.921Z,50.17
2018-02-21T16:46:37.263Z,51.30
2018-02-21T16:49:05.652Z,53.63
2018-02-21T16:51:33.281Z,47.77
2018-02-21T16:54:00.916Z,49.30
2018-02-21T16:56:28.841Z,48.77
2018-02-21T16:58:57.229Z,51.10
2018-02-21T17:01:28.679Z,44.17
2018-02-21T17:03:57.060Z,49.53
2018-02-21T17:06:24.696Z,47.80
2018-02-21T17:08:52.696Z,48.60
2018-02-21T17:11:20.325Z,46.07
2018-02-21T17:13:47.951Z,48.27
2018-02-21T17:16:15.581Z,49.90
2018-02-21T17:18:43.222Z,46.00
2018-02-21T17:21:10.857Z,50.80
2018-02-21T17:23:38.508Z,47.67
2018-02-21T17:26:06.900Z,54.30
2018-02-21T17:28:34.520Z,50.37
2018-02-21T17:31:02.144Z,50.13
2018-02-21T17:33:29.773Z,54.93
2018-02-21T17:35:57.396Z,50.90
2018-02-21T17:38:25.167Z,46.93
2018-02-21T17:40:52.805Z,56.27
2018-02-21T17:43:20.428Z,52.67
2018-02-21T17:45:48.074Z,54.97
2018-02-21T17:48:15.693Z,52.03
2018-02-21T17:50:43.344Z,44.50
2018-02-21T17:53:11.733Z,48.53
2018-02-21T17:55:40.124Z,51.87
2018-02-21T17:58:08.512Z,47.40
2018-02-21T18:00:36.138Z,47.40
2018-02-21T18:03:03.770Z,41.10
2018-02-21T18:05:31.420Z,40.13
2018-02-21T18:07:59.040Z,40.23
2018-02-21T18:10:26.664Z,38.70
2018-02-21T18:12:54.302Z,36.47
2018-02-21T18:15:22.689Z,36.93
2018-02-21T18:17:50.343Z,38.03
2018-02-21T18:20:17.957Z,38.07
2018-02-21T18:22:46.358Z,39.73
2018-02-21T18:25:13.983Z,43.27
2018-02-21T18:27:41.613Z,37.23
2018-02-21T18:30:10.023Z,34.30
2018-02-21T18:32:37.656Z,36.33
2018-02-21T18:35:05.444Z,32.53
2018-02-21T18:37:33.102Z,40.67
2018-02-21T18:40:00.732Z,36.63
2018-02-21T18:42:29.468Z,34.63
2018-02-21T18:44:57.868Z,33.17
2018-02-21T18:47:25.508Z,34.83
2018-02-21T18:49:53.137Z,32.00
2018-02-21T18:52:20.783Z,32.20
2018-02-21T18:54:48.421Z,35.67
2018-02-21T18:57:16.046Z,32.10
2018-02-21T18:59:43.673Z,34.23
2018-02-21T19:02:11.307Z,35.97
2018-02-21T19:04:39.716Z,31.03
2018-02-21T19:07:13.253Z,32.43
2018-02-21T19:09:40.903Z,33.03
2018-02-21T19:12:08.544Z,31.97
2018-02-21T19:14:36.179Z,33.90
2018-02-21T19:17:03.800Z,34.17
2018-02-21T19:19:31.457Z,35.60
2018-02-21T19:21:59.125Z,36.93
2018-02-21T19:24:26.766Z,33.80
2018-02-21T19:26:55.169Z,33.50
2018-02-21T19:29:22.829Z,31.07
2018-02-21T19:31:50.477Z,33.10
2018-02-21T19:34:18.898Z,38.90
2018-02-21T19:36:46.542Z,36.60
2018-02-21T19:39:14.957Z,36.80
2018-02-21T19:41:42.588Z,36.40
2018-02-21T19:44:10.216Z,32.97
2018-02-21T19:46:37.893Z,36.27
2018-02-21T19:49:06.322Z,36.60
2018-02-21T19:51:33.957Z,36.43
2018-02-21T19:54:01.612Z,41.10
2018-02-21T19:56:29.267Z,39.03
2018-02-21T19:58:56.930Z,41.13
2018-02-21T20:01:24.569Z,49.25
2018-02-21T20:03:52.220Z,44.17
2018-02-21T20:06:19.861Z,44.67
2018-02-21T20:08:48.280Z,43.70
2018-02-21T20:11:15.914Z,36.00
2018-02-21T20:13:43.572Z,37.10
2018-02-21T20:16:11.989Z,36.70
2018-02-21T20:18:39.612Z,37.73
2018-02-21T20:21:07.270Z,42.30
2018-02-21T20:23:34.924Z,39.40
2018-02-21T20:26:02.588Z,40.23
2018-02-21T20:28:30.224Z,39.27
2018-02-21T20:30:57.878Z,37.20
2018-02-21T20:33:25.530Z,38.70
2018-02-21T20:35:53.177Z,39.93
2018-02-21T20:38:20.910Z,37.57
2018-02-21T20:40:48.763Z,44.80
2018-02-21T20:43:16.403Z,40.37
2018-02-21T20:45:44.830Z,39.87
2018-02-21T20:48:12.424Z,43.33
2018-02-21T20:50:40.064Z,42.30
2018-02-21T20:53:07.700Z,38.27
2018-02-21T20:55:35.628Z,44.47
2018-02-21T20:58:03.268Z,39.33
